Airfield :
LOGIN :

Register | Disclaimer

   EN    FR    IT 

 










Legend :    VFR   Marginal VFR   IFR   Intensive IFR   Very Intensive IFR
Visi :
Ceiling :
>= 8 km
>= 3000ft
5 to 8 km
1000 to 3000 ft
1500m to 5 km
500 to 1000 ft
800 to 1500m
200 to 500 ft
< 800m
< 200 ft
Symbols :   Thunderstorms  Fog  Heavy snow  Heavy precipitations  Wind > 20 kt
SIGMETs :     Misc.  Thunderstorms  Icing  Turbulence  Mountain Waves  Volcanic Ashes






- Airport Elevation : 1017 ft


LFSL - Brive Souillac

CURRENT METAR :
  • 101230Z AUTO VRB01KT CAVOK 06/03 Q1027 NOSIG

EXPIRED METARs :
  • 101200Z AUTO 00000KT CAVOK 05/04 Q1028 NOSIG
  • 101130Z AUTO VRB03KT 9999 FEW003 03/03 Q1028 NOSIG
  • 101100Z AUTO 15003KT 110V220 8000 BKN002 03/03 Q1029 BECMG NSC
  • 101030Z AUTO 11007KT 0400 0350 R29/0550U FG VV/// 02/02 Q1029 BECMG CAVOK
  • 101000Z AUTO 13005KT 100V160 0300 0250 R29/0275N FG VV/// 02/02 Q1030 BECMG CAVOK

TAF TAF LFSL
Valid from the 10 at 12:00 until the 10 at 21:00 UTC


101100Z 1012/1021 VRB02KT 9999 BKN005
BECMG 1012/1014 CAVOK



MET'MAP, your aeronautical weather chart ! - Copyright ORBIFLY December 2007 - Disclaimer

ORBIFLY MET'MAP TEAM :

Programming & Development : Alexandra Zaïnal
Concept & original design : Baudouin d'Aumeries
Assistance for programming : Marc-Olivier Méhu
Technical & hardware support : Manuel Goepfert

Contact : metmap@orbifly.com




SOURCES & CREDITS :

   NOAA